Terminal Aerodrome Forecast
Issued by NWS

Home | Current Version | Previous Version | Text Only | Print | Product List | Glossary Off
Versions: 1 2 3 4 5 6 7 8 9 10 11 12 13 14 15 16 17 18 19 20

000
FTUS43 KICT 300700 AAB
TAFHUT
TAF AMD
KHUT 300748Z 3008/3106 VRB05KT 3SM BR SKC
      TEMPO 3008/3012 1/2SM FG VV003
     FM310000 18010KT P6SM SKC=

USA.gov is the U.S. government's official web portal to all federal, state and local government web resources and services.